Airfield :
LOGIN :

Register | Disclaimer

   EN    FR    IT 

 










Legend :    VFR   Marginal VFR   IFR   Intensive IFR   Very Intensive IFR
Visi :
Ceiling :
>= 8 km
>= 3000ft
5 to 8 km
1000 to 3000 ft
1500m to 5 km
500 to 1000 ft
800 to 1500m
200 to 500 ft
< 800m
< 200 ft
Symbols :   Thunderstorms  Fog  Heavy snow  Heavy precipitations  Wind > 20 kt
SIGMETs :     Misc.  Thunderstorms  Icing  Turbulence  Mountain Waves  Volcanic Ashes







- Airport Elevation : 53 ft
- IATA code : AGP


LEMG - Malaga

CURRENT METAR :
  • 220030Z 32002KT 3000 BR FEW005 17/16 Q1022 NOSIG

EXPIRED METARs :
  • 220012Z 32001KT 3000 BR FEW005 16/16 Q1022 NOSIG
  • 220000Z 31002KT 1500 BCFG SCT005 16/16 Q1022 NOSIG
  • 212348Z 31001KT 1500 BCFG BKN002 17/16 Q1022 NOSIG
  • 212330Z 00000KT 0800 R31/0750N R13/0400D FG BKN002 17/16 Q1022 NOSIG
  • 212300Z 00000KT 0800 R31/0500D R13/1800D FG BKN002 17/17 Q1022 NOSIG
  • 212238Z VRB01KT 1000 R31/0650U R13/P2000 BCFG BKN002 17/17 Q1022 NOSIG
  • 212230Z VRB01KT 2000 R31/0500D BCFG SCT002 18/17 Q1022 NOSIG
  • 212219Z VRB01KT 5000 1500SW BCFG SCT002 18/17 Q1023 NOSIG
  • 212200Z 00000KT 9999 FEW002 18/16 Q1022 NOSIG

TAF COR TAF LEMG
Valid from the 22 at 00:00 until the 23 at 00:00 UTC


212353Z 2200/2224 VRB02KT 3500 BR SCT010 TX23/2212Z TN16/2204Z
PROB40
TEMPO 2200/2204 0800 BCFG BKN002
PROB30
TEMPO 2200/2208 1500 BCFG BKN006
BECMG 2202/2204 27008KT
BECMG 2207/2209 12006KT
No reported NOTAMs for that airfield.



MET'MAP, your aeronautical weather chart ! - Copyright ORBIFLY December 2007 - Disclaimer

ORBIFLY MET'MAP TEAM :

Programming & Development : Alexandra Zaïnal
Concept & Development : Baudouin d'Aumeries
Co-Development & Prog : Marc-Olivier Méhu
Technical & hardware support : Manuel Goepfert

Contact : metmap@orbifly.com




SOURCES & CREDITS :

   NOAA